This is the latest recevied weather packets stored in our database for station/object F4THN-13. If no packets are shown the sender has not sent any weather packets the latest 10 day(s).
| Time | Temp. | Humidity | Pressure | Rain* | Wind** | Luminosity | Snow |
|---|---|---|---|---|---|---|---|
| 1777490804 | 18.33° C | 70% | 1014.3 hPa | 0 mm | - | - | - |
| 1777489304 | 20° C | 67% | 1014 hPa | 0 mm | - | - | - |
| 1777487804 | 20.56° C | 65% | 1013.7 hPa | 0 mm | - | - | - |
| 1777486303 | 21.67° C | 62% | 1013.5 hPa | 0 mm | - | - | - |
| 1777484803 | 21.67° C | 61% | 1013.4 hPa | 0 mm | - | - | - |
| 1777483303 | 22.22° C | 59% | 1013.4 hPa | 0 mm | - | - | - |
| 1777481803 | 22.78° C | 57% | 1013.5 hPa | 0 mm | - | - | - |
| 1777480303 | 22.78° C | 56% | 1013.6 hPa | 0 mm | - | - | - |
| 1777478803 | 22.78° C | 57% | 1013.6 hPa | 0 mm | - | - | - |
| 1777477302 | 22.78° C | 56% | 1013.5 hPa | 0 mm | - | - | - |
| 1777475802 | 22.78° C | 56% | 1013.7 hPa | 0 mm | - | - | - |
| 1777474302 | 22.78° C | 56% | 1013.8 hPa | 0 mm | - | - | - |
| 1777472802 | 22.78° C | 57% | 1014 hPa | 0 mm | - | - | - |
| 1777471302 | 22.22° C | 58% | 1014.2 hPa | 0 mm | - | - | - |
| 1777469802 | 22.22° C | 58% | 1014.4 hPa | 0 mm | - | - | - |
| 1777468301 | 21.67° C | 59% | 1014.6 hPa | 0 mm | - | - | - |
| 1777466801 | 22.22° C | 60% | 1014.6 hPa | 0 mm | - | - | - |
| 1777465351 | 21.67° C | 61% | 1014.7 hPa | 0 mm | - | - | - |
| 1777465301 | 21.67° C | 61% | 1014.7 hPa | 0 mm | - | - | - |
| 1777463801 | 21.11° C | 63% | 1014.8 hPa | 0 mm | - | - | - |
| 1777462301 | 20.56° C | 67% | 1015 hPa | 0 mm | - | - | - |
| 1777460801 | 20.56° C | 69% | 1015.2 hPa | 0 mm | - | - | - |
| 1777459301 | 20° C | 70% | 1015.3 hPa | 0 mm | - | - | - |
| 1777457800 | 19.44° C | 71% | 1015.5 hPa | 0 mm | - | - | - |
| 1777456300 | 18.89° C | 74% | 1015.5 hPa | 0 mm | - | - | - |
* Rain latest hour (hover to see other rain measurements)
** Current wind speed in m/s (hover to see current wind gust speed)